createdAt,value
2019-04-18T00:00:40.255Z,71.36
2019-04-18T00:01:40.343Z,71.73
2019-04-18T00:02:41.151Z,71.64
2019-04-18T00:03:51.253Z,71.93
2019-04-18T00:04:40.620Z,71.93
2019-04-18T00:05:40.714Z,72.12
2019-04-18T00:06:40.805Z,72.02
2019-04-18T00:07:40.897Z,71.83
2019-04-18T00:08:40.991Z,71.73
2019-04-18T00:09:43.146Z,72.02
2019-04-18T00:10:41.168Z,72.78
2019-04-18T00:11:41.260Z,72.50
2019-04-18T00:12:41.352Z,72.41
2019-04-18T00:13:41.441Z,72.50
2019-04-18T00:14:49.571Z,72.50
2019-04-18T00:15:41.625Z,72.41
2019-04-18T00:16:41.726Z,72.78
2019-04-18T00:17:41.809Z,72.85
2019-04-18T00:18:41.902Z,73.03
2019-04-18T00:19:43.007Z,73.03
2019-04-18T00:20:44.943Z,73.22
2019-04-18T00:21:42.175Z,73.13
2019-04-18T00:22:42.270Z,73.17
2019-04-18T00:23:42.355Z,73.03
2019-04-18T00:24:42.442Z,73.70
2019-04-18T00:25:42.536Z,73.51
2019-04-18T00:26:44.112Z,73.51
2019-04-18T00:27:45.119Z,73.51
2019-04-18T00:28:42.808Z,74.18
2019-04-18T00:29:42.900Z,73.80
2019-04-18T00:30:42.988Z,74.08
2019-04-18T00:31:43.080Z,73.89
2019-04-18T00:32:45.835Z,73.70
2019-04-18T00:33:43.260Z,73.80
2019-04-18T00:34:43.351Z,73.89
2019-04-18T00:35:43.456Z,73.80
2019-04-18T00:36:43.546Z,74.37
2019-04-18T00:37:43.638Z,74.65
2019-04-18T00:38:43.730Z,74.27
2019-04-18T00:39:43.821Z,74.65
2019-04-18T00:40:44.525Z,74.75
2019-04-18T00:41:46.135Z,74.75
2019-04-18T00:42:44.089Z,74.94
2019-04-18T00:43:44.180Z,74.75
2019-04-18T00:44:44.275Z,74.84
2019-04-18T00:45:44.546Z,75.13
2019-04-18T00:46:45.944Z,74.84
2019-04-18T00:47:44.541Z,75.23
2019-04-18T00:48:44.623Z,75.19
2019-04-18T00:49:44.726Z,75.32
2019-04-18T00:50:44.819Z,75.04
2019-04-18T00:51:45.017Z,74.90
2019-04-18T00:52:46.004Z,75.76
2019-04-18T00:53:45.153Z,75.57
2019-04-18T00:54:45.192Z,75.47
2019-04-18T00:55:45.299Z,75.95
2019-04-18T00:56:45.372Z,76.14
2019-04-18T00:57:47.372Z,76.52
2019-04-18T00:58:48.062Z,75.85
2019-04-18T00:59:45.654Z,75.95
2019-04-18T01:00:45.740Z,76.23
2019-04-18T01:01:46.231Z,76.33
2019-04-18T01:02:51.560Z,76.33
2019-04-18T01:03:46.012Z,75.76
2019-04-18T01:04:46.099Z,75.95
2019-04-18T01:05:46.193Z,75.76
2019-04-18T01:06:48.962Z,75.95
2019-04-18T01:07:46.374Z,76.14
2019-04-18T01:08:46.462Z,76.04
2019-04-18T01:09:46.552Z,75.67
2019-04-18T01:10:46.646Z,76.04
2019-04-18T01:11:46.762Z,76.14
2019-04-18T01:12:46.824Z,75.95
2019-04-18T01:13:46.927Z,76.33
2019-04-18T01:14:49.487Z,76.61
2019-04-18T01:15:47.107Z,76.52
2019-04-18T01:16:47.196Z,76.52
2019-04-18T01:17:47.287Z,77.09
2019-04-18T01:18:48.465Z,76.90
2019-04-18T01:19:47.470Z,76.90
2019-04-18T01:20:47.556Z,76.81
2019-04-18T01:21:47.647Z,77.09
2019-04-18T01:22:49.024Z,76.42
2019-04-18T01:23:47.830Z,76.71
2019-04-18T01:24:47.920Z,76.71
2019-04-18T01:25:48.013Z,76.71
2019-04-18T01:26:48.103Z,77.00
2019-04-18T01:27:48.193Z,76.90
2019-04-18T01:28:48.287Z,76.52
2019-04-18T01:29:48.374Z,76.81
2019-04-18T01:30:48.465Z,77.37
2019-04-18T01:31:48.554Z,77.37
2019-04-18T01:32:48.665Z,77.47
2019-04-18T01:33:48.757Z,77.28
2019-04-18T01:34:49.830Z,77.56
2019-04-18T01:35:52.114Z,77.85
2019-04-18T01:36:49.029Z,78.23
2019-04-18T01:37:49.118Z,77.95
2019-04-18T01:38:49.207Z,77.56
2019-04-18T01:39:49.298Z,78.19
2019-04-18T01:40:52.456Z,77.66
2019-04-18T01:41:49.526Z,77.66
2019-04-18T01:42:49.572Z,77.72
2019-04-18T01:43:49.659Z,77.81
2019-04-18T01:44:49.755Z,77.76
2019-04-18T01:45:51.291Z,77.76
2019-04-18T01:46:53.001Z,78.14
2019-04-18T01:47:50.024Z,78.14
2019-04-18T01:48:50.114Z,78.00
2019-04-18T01:49:50.201Z,78.00
2019-04-18T01:50:50.291Z,77.81
2019-04-18T01:51:50.956Z,78.10
2019-04-18T01:52:50.484Z,78.10
2019-04-18T01:53:50.565Z,78.57
2019-04-18T01:54:50.656Z,78.57
2019-04-18T01:55:51.364Z,78.86
2019-04-18T01:56:55.603Z,78.29
2019-04-18T01:57:50.927Z,78.57
2019-04-18T01:58:51.016Z,78.96
2019-04-18T01:59:51.106Z,79.05
2019-04-18T02:00:53.406Z,78.96
2019-04-18T02:01:54.427Z,79.43
2019-04-18T02:02:51.375Z,79.24
2019-04-18T02:03:51.467Z,79.33
2019-04-18T02:05:00.798Z,80.05
2019-04-18T02:05:51.641Z,80.15
2019-04-18T02:06:51.732Z,81.29
2019-04-18T02:07:51.823Z,81.29
2019-04-18T02:08:52.713Z,81.01
2019-04-18T02:09:53.918Z,81.38
2019-04-18T02:10:52.076Z,81.48
2019-04-18T02:11:52.179Z,81.81
2019-04-18T02:12:52.266Z,80.91
2019-04-18T02:13:53.247Z,81.14
2019-04-18T02:14:52.443Z,80.86
2019-04-18T02:15:52.540Z,80.72
2019-04-18T02:16:52.627Z,81.33
2019-04-18T02:17:52.716Z,81.05
2019-04-18T02:18:54.546Z,80.91
2019-04-18T02:19:52.894Z,81.01
2019-04-18T02:20:52.998Z,80.91
2019-04-18T02:21:53.073Z,80.95
2019-04-18T02:22:53.169Z,81.24
2019-04-18T02:23:56.350Z,80.76
2019-04-18T02:24:53.345Z,80.86
2019-04-18T02:25:53.436Z,80.63
2019-04-18T02:26:53.525Z,80.91
2019-04-18T02:27:55.000Z,80.86
2019-04-18T02:28:53.705Z,81.10
2019-04-18T02:29:53.798Z,81.58
2019-04-18T02:30:57.087Z,81.48
2019-04-18T02:31:53.975Z,81.77
2019-04-18T02:32:54.063Z,81.67
2019-04-18T02:33:54.154Z,81.38
2019-04-18T02:34:54.249Z,81.77
2019-04-18T02:35:54.334Z,81.01
2019-04-18T02:36:54.421Z,81.29
2019-04-18T02:37:54.511Z,81.01
2019-04-18T02:38:56.173Z,81.29
2019-04-18T02:39:56.983Z,81.20
2019-04-18T02:40:54.784Z,81.10
2019-04-18T02:41:54.871Z,80.91
2019-04-18T02:42:54.959Z,81.01
2019-04-18T02:43:55.491Z,81.58
2019-04-18T02:44:59.568Z,81.77
2019-04-18T02:45:55.233Z,81.58
2019-04-18T02:46:55.318Z,82.15
2019-04-18T02:47:55.418Z,82.77
2019-04-18T02:48:58.138Z,82.87
2019-04-18T02:49:55.592Z,84.10
2019-04-18T02:50:55.683Z,85.11
2019-04-18T02:51:55.773Z,84.91
2019-04-18T02:52:58.518Z,85.30
2019-04-18T02:53:55.953Z,86.63
2019-04-18T02:54:56.046Z,87.10
2019-04-18T02:55:56.128Z,87.29
2019-04-18T02:56:57.742Z,87.38
2019-04-18T02:57:56.311Z,87.10
2019-04-18T02:58:56.399Z,87.76
2019-04-18T02:59:56.488Z,87.86
2019-04-18T03:00:57.067Z,87.67
2019-04-18T03:01:57.215Z,87.67
2019-04-18T03:02:56.748Z,87.95
2019-04-18T03:03:56.839Z,87.67
2019-04-18T03:04:56.926Z,87.38
2019-04-18T03:05:57.013Z,87.57
2019-04-18T03:06:57.107Z,87.62
2019-04-18T03:07:57.192Z,87.05
2019-04-18T03:09:00.253Z,86.38
2019-04-18T03:09:57.379Z,86.10
2019-04-18T03:10:57.465Z,85.91
2019-04-18T03:11:57.553Z,85.62
2019-04-18T03:12:57.799Z,86.00
2019-04-18T03:13:57.747Z,84.58
2019-04-18T03:14:57.834Z,85.10
2019-04-18T03:15:57.923Z,85.05
2019-04-18T03:16:59.063Z,84.67
2019-04-18T03:17:58.745Z,84.33
2019-04-18T03:18:58.193Z,84.29
2019-04-18T03:19:58.283Z,83.95
2019-04-18T03:20:58.388Z,83.29
2019-04-18T03:21:59.792Z,83.25
2019-04-18T03:23:08.694Z,84.01
2019-04-18T03:23:58.682Z,84.39
2019-04-18T03:24:58.775Z,84.86
2019-04-18T03:25:58.865Z,85.77
2019-04-18T03:27:01.167Z,86.15
2019-04-18T03:27:59.046Z,87.10
2019-04-18T03:28:59.129Z,87.38
2019-04-18T03:29:59.216Z,87.57
2019-04-18T03:31:03.027Z,87.95
2019-04-18T03:32:01.173Z,88.43
2019-04-18T03:32:59.483Z,88.81
2019-04-18T03:34:00.250Z,89.19
2019-04-18T03:34:59.662Z,89.09
2019-04-18T03:35:59.746Z,89.00
2019-04-18T03:37:03.020Z,89.19
2019-04-18T03:37:59.922Z,89.19
2019-04-18T03:39:00.012Z,88.76
2019-04-18T03:40:00.102Z,89.28
2019-04-18T03:41:00.184Z,89.86
2019-04-18T03:42:01.338Z,89.76
2019-04-18T03:43:02.471Z,89.24
2019-04-18T03:44:00.452Z,88.86
2019-04-18T03:45:00.540Z,89.76
2019-04-18T03:46:00.626Z,90.05
2019-04-18T03:47:00.721Z,89.67
2019-04-18T03:48:04.067Z,89.38
2019-04-18T03:49:00.893Z,89.86
2019-04-18T03:50:00.985Z,89.38
2019-04-18T03:51:04.650Z,89.67
2019-04-18T03:52:01.160Z,89.00
2019-04-18T03:53:01.312Z,89.00
2019-04-18T03:54:02.652Z,89.19
2019-04-18T03:55:01.436Z,88.90
2019-04-18T03:56:01.521Z,89.47
2019-04-18T03:57:02.834Z,89.57
2019-04-18T03:58:03.633Z,89.76
2019-04-18T03:59:01.786Z,89.67
2019-04-18T04:00:01.873Z,89.67
2019-04-18T04:01:01.964Z,89.09
2019-04-18T04:02:02.548Z,89.67
2019-04-18T04:03:06.719Z,89.00
2019-04-18T04:04:02.227Z,90.33
2019-04-18T04:05:02.316Z,89.86
2019-04-18T04:06:05.155Z,90.33
2019-04-18T04:07:02.495Z,90.19
2019-04-18T04:08:03.207Z,90.28
2019-04-18T04:09:03.877Z,90.85
2019-04-18T04:10:03.361Z,90.85
2019-04-18T04:11:02.858Z,91.14
2019-04-18T04:12:02.968Z,91.33
2019-04-18T04:13:03.482Z,90.95
2019-04-18T04:14:06.720Z,90.95
2019-04-18T04:15:03.825Z,91.04
2019-04-18T04:16:03.366Z,90.66
2019-04-18T04:17:03.435Z,91.33
2019-04-18T04:18:07.355Z,91.33
2019-04-18T04:19:03.563Z,91.42
2019-04-18T04:20:04.053Z,91.33
2019-04-18T04:21:03.830Z,91.52
2019-04-18T04:22:04.702Z,91.33
2019-04-18T04:23:03.868Z,91.24
2019-04-18T04:24:03.964Z,91.33
2019-04-18T04:25:07.599Z,91.24
2019-04-18T04:26:04.132Z,91.52
2019-04-18T04:27:04.225Z,91.24
2019-04-18T04:28:04.841Z,91.71
2019-04-18T04:29:04.411Z,91.24
2019-04-18T04:30:07.240Z,91.38
2019-04-18T04:31:05.088Z,90.71
2019-04-18T04:32:04.939Z,91.38
2019-04-18T04:33:04.763Z,91.19
2019-04-18T04:34:09.775Z,91.33
2019-04-18T04:35:04.935Z,90.99
2019-04-18T04:36:20.702Z,90.80
2019-04-18T04:37:06.212Z,90.33
2019-04-18T04:38:05.201Z,90.61
2019-04-18T04:39:05.403Z,90.52
2019-04-18T04:40:05.885Z,90.90
2019-04-18T04:41:06.299Z,90.80
2019-04-18T04:42:10.097Z,90.99
2019-04-18T04:43:05.796Z,91.09
2019-04-18T04:44:05.745Z,91.38
2019-04-18T04:45:05.984Z,91.09
2019-04-18T04:46:08.663Z,90.80
2019-04-18T04:47:06.013Z,90.61
2019-04-18T04:48:06.110Z,90.33
2019-04-18T04:49:07.007Z,90.52
2019-04-18T04:50:07.417Z,90.42
2019-04-18T04:51:09.255Z,90.33
2019-04-18T04:52:06.464Z,90.52
2019-04-18T04:53:06.557Z,90.05
2019-04-18T04:54:08.388Z,90.23
2019-04-18T04:55:06.869Z,89.95
2019-04-18T04:56:06.816Z,90.05
2019-04-18T04:57:06.908Z,90.23
2019-04-18T04:58:06.998Z,90.52
2019-04-18T04:59:11.433Z,90.52
2019-04-18T05:00:07.177Z,90.80
2019-04-18T05:01:07.272Z,90.61
2019-04-18T05:02:08.785Z,90.90
2019-04-18T05:03:13.914Z,91.19
2019-04-18T05:04:07.716Z,91.19
2019-04-18T05:05:07.735Z,90.80
2019-04-18T05:06:07.714Z,90.42
2019-04-18T05:07:07.816Z,90.33
2019-04-18T05:08:07.895Z,90.05
2019-04-18T05:09:07.993Z,90.23
2019-04-18T05:10:11.586Z,90.14
2019-04-18T05:11:08.161Z,90.05
2019-04-18T05:12:10.697Z,89.67
2019-04-18T05:13:09.624Z,89.57
2019-04-18T05:14:08.933Z,89.33
2019-04-18T05:15:09.477Z,89.61
2019-04-18T05:16:09.169Z,89.71
2019-04-18T05:17:09.167Z,89.04
2019-04-18T05:18:09.061Z,89.52
2019-04-18T05:19:08.954Z,88.85
2019-04-18T05:20:09.012Z,88.13
2019-04-18T05:21:09.046Z,87.38
2019-04-18T05:22:09.259Z,87.19
2019-04-18T05:23:09.224Z,86.14
2019-04-18T05:24:10.862Z,85.95
2019-04-18T05:25:10.856Z,86.05
2019-04-18T05:26:09.506Z,84.91
2019-04-18T05:27:09.591Z,84.66
2019-04-18T05:28:09.660Z,85.61
2019-04-18T05:29:13.552Z,85.14
2019-04-18T05:30:09.853Z,84.85
2019-04-18T05:31:12.815Z,84.76
2019-04-18T05:32:10.525Z,84.09
2019-04-18T05:33:11.968Z,84.00
2019-04-18T05:34:11.174Z,83.75
2019-04-18T05:35:10.301Z,83.94
2019-04-18T05:36:10.390Z,83.28
2019-04-18T05:37:13.847Z,82.99
2019-04-18T05:38:10.581Z,82.90
2019-04-18T05:39:10.675Z,82.32
2019-04-18T05:40:10.765Z,81.85
2019-04-18T05:41:13.291Z,81.76
2019-04-18T05:42:10.945Z,81.76
2019-04-18T05:43:11.030Z,81.66
2019-04-18T05:44:11.130Z,81.47
2019-04-18T05:45:11.763Z,81.76
2019-04-18T05:46:11.309Z,81.76
2019-04-18T05:47:11.399Z,81.18
2019-04-18T05:48:11.491Z,81.23
2019-04-18T05:49:11.579Z,81.37
2019-04-18T05:50:13.860Z,81.70
2019-04-18T05:51:17.918Z,81.32
2019-04-18T05:52:11.870Z,81.23
2019-04-18T05:53:11.951Z,81.23
2019-04-18T05:54:12.043Z,81.03
2019-04-18T05:55:12.138Z,80.75
2019-04-18T05:56:12.228Z,80.65
2019-04-18T05:57:12.315Z,81.13
2019-04-18T05:58:12.409Z,80.55
2019-04-18T05:59:13.278Z,80.36
2019-04-18T06:00:12.589Z,79.99
2019-04-18T06:01:12.992Z,80.02
2019-04-18T06:02:16.723Z,80.02
2019-04-18T06:03:12.867Z,79.46
2019-04-18T06:04:12.983Z,79.49
2019-04-18T06:05:13.299Z,78.25
2019-04-18T06:06:16.715Z,77.87
2019-04-18T06:07:16.209Z,77.59
2019-04-18T06:08:13.312Z,76.86
2019-04-18T06:09:13.406Z,76.20
2019-04-18T06:10:16.420Z,76.29
2019-04-18T06:11:13.586Z,75.37
2019-04-18T06:12:13.677Z,74.61
2019-04-18T06:13:13.770Z,73.22
2019-04-18T06:14:13.864Z,72.20
2019-04-18T06:15:16.942Z,71.53
2019-04-18T06:16:14.078Z,70.61
2019-04-18T06:17:14.151Z,70.23
2019-04-18T06:18:14.265Z,69.41
2019-04-18T06:19:20.307Z,68.16
2019-04-18T06:20:14.430Z,66.76
2019-04-18T06:21:14.526Z,65.81
2019-04-18T06:22:17.670Z,64.85
2019-04-18T06:23:15.073Z,64.47
2019-04-18T06:24:14.793Z,64.50
2019-04-18T06:25:17.823Z,63.93
2019-04-18T06:26:14.986Z,62.81
2019-04-18T06:27:15.079Z,62.62
2019-04-18T06:28:17.296Z,61.37
2019-04-18T06:29:15.285Z,61.08
2019-04-18T06:30:15.681Z,60.22
2019-04-18T06:31:15.485Z,59.65
2019-04-18T06:32:15.581Z,59.87
2019-04-18T06:33:15.672Z,59.58
2019-04-18T06:34:15.910Z,58.98
2019-04-18T06:35:17.959Z,58.91
2019-04-18T06:36:19.252Z,59.58
2019-04-18T06:37:30.510Z,59.39
2019-04-18T06:38:17.755Z,58.15
2019-04-18T06:39:16.249Z,58.53
2019-04-18T06:40:16.366Z,58.34
2019-04-18T06:41:16.440Z,57.79
2019-04-18T06:42:18.172Z,57.70
2019-04-18T06:43:20.003Z,56.67
2019-04-18T06:44:16.717Z,56.09
2019-04-18T06:45:16.989Z,56.19
2019-04-18T06:46:22.491Z,55.52
2019-04-18T06:47:17.013Z,55.45
2019-04-18T06:48:17.111Z,54.97
2019-04-18T06:49:17.223Z,54.52
2019-04-18T06:50:22.282Z,53.94
2019-04-18T06:51:17.831Z,53.49
2019-04-18T06:52:17.559Z,53.01
2019-04-18T06:53:21.632Z,52.53
2019-04-18T06:54:17.747Z,52.53
2019-04-18T06:55:17.849Z,53.11
2019-04-18T06:56:18.772Z,53.11
2019-04-18T06:57:19.383Z,51.67
2019-04-18T06:58:33.782Z,51.04
2019-04-18T06:59:21.948Z,53.05
2019-04-18T07:00:18.561Z,53.70
2019-04-18T07:01:18.440Z,54.46
2019-04-18T07:02:18.537Z,55.58
2019-04-18T07:03:20.921Z,55.82
2019-04-18T07:04:18.750Z,56.99
2019-04-18T07:05:18.847Z,56.81
2019-04-18T07:06:31.897Z,57.19
2019-04-18T07:07:21.261Z,56.99
2019-04-18T07:08:24.814Z,57.54
2019-04-18T07:09:19.247Z,58.02
2019-04-18T07:10:19.363Z,58.02
2019-04-18T07:11:19.465Z,57.95
2019-04-18T07:12:19.596Z,57.67
2019-04-18T07:13:21.688Z,57.03
2019-04-18T07:14:19.755Z,56.93
2019-04-18T07:15:19.853Z,56.29
2019-04-18T07:16:19.951Z,56.38
2019-04-18T07:17:22.618Z,56.48
2019-04-18T07:18:20.756Z,55.52
2019-04-18T07:19:20.245Z,55.80
2019-04-18T07:20:20.931Z,55.78
2019-04-18T07:21:21.018Z,56.16
2019-04-18T07:22:20.541Z,56.64
2019-04-18T07:23:20.642Z,56.76
2019-04-18T07:24:20.737Z,56.67
2019-04-18T07:25:20.836Z,56.76
2019-04-18T07:26:20.934Z,56.57
2019-04-18T07:27:21.031Z,56.19
2019-04-18T07:28:24.875Z,56.09
2019-04-18T07:29:21.390Z,56.00
2019-04-18T07:30:21.655Z,56.07
2019-04-18T07:31:26.044Z,56.74
2019-04-18T07:32:21.525Z,56.64
2019-04-18T07:33:21.622Z,56.83
2019-04-18T07:34:21.723Z,56.93
2019-04-18T07:35:24.099Z,56.64
2019-04-18T07:36:21.934Z,56.74
2019-04-18T07:37:22.015Z,56.93
2019-04-18T07:38:26.402Z,56.16
2019-04-18T07:39:22.220Z,55.97
2019-04-18T07:40:22.367Z,56.54
2019-04-18T07:41:22.408Z,56.54
2019-04-18T07:42:22.500Z,56.16
2019-04-18T07:43:22.601Z,56.57
2019-04-18T07:44:22.685Z,56.16
2019-04-18T07:45:22.780Z,56.64
2019-04-18T07:46:26.330Z,56.64
2019-04-18T07:47:22.981Z,56.35
2019-04-18T07:48:23.082Z,56.35
2019-04-18T07:49:23.175Z,56.57
2019-04-18T07:50:23.270Z,55.52
2019-04-18T07:51:23.385Z,55.33
2019-04-18T07:52:23.464Z,55.80
2019-04-18T07:53:23.826Z,55.71
2019-04-18T07:54:23.647Z,56.48
2019-04-18T07:55:24.816Z,56.09
2019-04-18T07:56:23.849Z,56.00
2019-04-18T07:57:24.890Z,55.71
2019-04-18T07:58:25.145Z,55.71
2019-04-18T07:59:24.141Z,56.09
2019-04-18T08:00:24.235Z,56.00
2019-04-18T08:01:28.205Z,56.38
2019-04-18T08:02:24.426Z,55.13
2019-04-18T08:03:39.135Z,54.56
2019-04-18T08:04:24.618Z,54.27
2019-04-18T08:05:24.715Z,53.12
2019-04-18T08:06:25.069Z,53.05
2019-04-18T08:07:24.902Z,53.24
2019-04-18T08:08:25.000Z,52.45
2019-04-18T08:09:25.099Z,52.83
2019-04-18T08:10:26.545Z,54.17
2019-04-18T08:11:25.300Z,54.27
2019-04-18T08:12:25.385Z,53.12
2019-04-18T08:13:25.484Z,52.64
2019-04-18T08:14:25.579Z,52.93
2019-04-18T08:15:25.670Z,53.15
2019-04-18T08:16:25.766Z,52.86
2019-04-18T08:17:25.859Z,52.19
2019-04-18T08:18:26.978Z,52.09
2019-04-18T08:19:26.059Z,52.57
2019-04-18T08:20:26.157Z,51.42
2019-04-18T08:21:26.251Z,51.04
2019-04-18T08:22:26.348Z,50.56
2019-04-18T08:23:33.999Z,51.45
2019-04-18T08:24:26.536Z,51.45
2019-04-18T08:25:26.628Z,50.58
2019-04-18T08:26:29.430Z,49.60
2019-04-18T08:27:26.828Z,49.12
2019-04-18T08:28:26.958Z,49.88
2019-04-18T08:29:28.286Z,50.56
2019-04-18T08:30:28.029Z,50.46
2019-04-18T08:31:27.215Z,50.46
2019-04-18T08:32:27.316Z,50.87
2019-04-18T08:33:27.446Z,50.29
2019-04-18T08:34:27.497Z,50.78
2019-04-18T08:35:27.595Z,50.58
2019-04-18T08:36:27.690Z,50.03
2019-04-18T08:37:27.778Z,49.43
2019-04-18T08:38:28.611Z,49.55
2019-04-18T08:39:27.977Z,49.55
2019-04-18T08:40:28.081Z,48.59
2019-04-18T08:41:29.116Z,49.24
2019-04-18T08:42:30.799Z,49.93
2019-04-18T08:43:28.375Z,49.93
2019-04-18T08:44:28.467Z,49.17
2019-04-18T08:45:29.485Z,49.33
2019-04-18T08:46:28.666Z,49.15
2019-04-18T08:47:28.761Z,49.52
2019-04-18T08:48:28.855Z,49.62
2019-04-18T08:49:32.311Z,50.61
2019-04-18T08:50:29.050Z,49.24
2019-04-18T08:51:29.149Z,48.66
2019-04-18T08:52:29.249Z,48.69
2019-04-18T08:53:29.351Z,48.69
2019-04-18T08:54:29.444Z,48.30
2019-04-18T08:55:29.534Z,47.72
2019-04-18T08:56:31.416Z,48.11
2019-04-18T08:57:29.748Z,48.43
2019-04-18T08:58:30.128Z,48.61
2019-04-18T08:59:38.010Z,48.52
2019-04-18T09:00:30.009Z,48.79
2019-04-18T09:01:30.106Z,49.48
2019-04-18T09:02:30.202Z,48.52
2019-04-18T09:03:31.389Z,48.13
2019-04-18T09:04:30.397Z,48.33
2019-04-18T09:05:31.282Z,47.94
2019-04-18T09:06:34.522Z,48.52
2019-04-18T09:07:33.461Z,48.35
2019-04-18T09:08:31.455Z,49.60
2019-04-18T09:09:31.309Z,47.97
2019-04-18T09:10:31.499Z,46.91
2019-04-18T09:11:32.194Z,46.91
2019-04-18T09:12:37.877Z,47.30
2019-04-18T09:13:36.921Z,46.64
2019-04-18T09:14:31.447Z,46.74
2019-04-18T09:15:31.744Z,47.03
2019-04-18T09:16:32.396Z,46.74
2019-04-18T09:17:35.155Z,46.74
2019-04-18T09:18:32.451Z,46.84
2019-04-18T09:19:31.975Z,46.84
2019-04-18T09:20:33.554Z,47.41
2019-04-18T09:21:32.088Z,45.97
2019-04-18T09:22:32.468Z,46.16
2019-04-18T09:23:33.268Z,45.97
2019-04-18T09:24:40.369Z,45.97
2019-04-18T09:25:33.343Z,46.16
2019-04-18T09:26:33.158Z,45.87
2019-04-18T09:27:32.618Z,45.78
2019-04-18T09:28:39.212Z,45.10
2019-04-18T09:29:32.806Z,45.78
2019-04-18T09:30:32.926Z,45.68
2019-04-18T09:31:33.018Z,45.29
2019-04-18T09:32:33.118Z,45.39
2019-04-18T09:33:33.215Z,45.29
2019-04-18T09:34:34.416Z,44.91
2019-04-18T09:35:45.240Z,45.13
2019-04-18T09:36:33.517Z,44.82
2019-04-18T09:37:33.605Z,44.82
2019-04-18T09:38:36.730Z,44.82
2019-04-18T09:39:33.796Z,45.10
2019-04-18T09:40:33.897Z,45.76
2019-04-18T09:41:33.990Z,45.37
2019-04-18T09:42:34.086Z,45.56
2019-04-18T09:43:34.182Z,46.04
2019-04-18T09:44:34.277Z,45.56
2019-04-18T09:45:35.479Z,44.72
2019-04-18T09:46:34.467Z,44.72
2019-04-18T09:47:34.572Z,44.91
2019-04-18T09:48:34.704Z,44.91
2019-04-18T09:49:38.219Z,44.65
2019-04-18T09:50:34.863Z,44.07
2019-04-18T09:51:34.958Z,44.74
2019-04-18T09:52:35.061Z,43.97
2019-04-18T09:53:35.158Z,43.30
2019-04-18T09:54:38.134Z,42.72
2019-04-18T09:55:35.349Z,43.01
2019-04-18T09:56:35.446Z,42.33
2019-04-18T09:57:35.543Z,41.08
2019-04-18T09:58:35.641Z,40.80
2019-04-18T09:59:35.738Z,41.30
2019-04-18T10:00:35.834Z,41.78
2019-04-18T10:01:35.932Z,41.39
2019-04-18T10:02:36.030Z,41.78
2019-04-18T10:03:36.581Z,41.78
2019-04-18T10:04:36.216Z,41.99
2019-04-18T10:05:36.311Z,42.38
2019-04-18T10:06:36.407Z,42.19
2019-04-18T10:07:36.506Z,42.38
2019-04-18T10:08:36.607Z,42.16
2019-04-18T10:09:36.703Z,42.36
2019-04-18T10:10:36.799Z,41.13
2019-04-18T10:11:36.896Z,39.87
2019-04-18T10:12:36.997Z,39.11
2019-04-18T10:13:37.095Z,38.04
2019-04-18T10:14:38.909Z,38.53
2019-04-18T10:15:37.290Z,38.72
2019-04-18T10:16:39.296Z,37.85
2019-04-18T10:17:37.491Z,39.49
2019-04-18T10:18:37.589Z,41.01
2019-04-18T10:19:37.681Z,41.01
2019-04-18T10:20:38.998Z,41.49
2019-04-18T10:21:37.877Z,41.78
2019-04-18T10:22:37.976Z,42.55
2019-04-18T10:23:38.070Z,42.46
2019-04-18T10:24:38.174Z,40.91
2019-04-18T10:25:38.266Z,40.89
2019-04-18T10:26:38.373Z,41.20
2019-04-18T10:27:38.470Z,41.11
2019-04-18T10:28:38.566Z,41.20
2019-04-18T10:29:38.657Z,41.11
2019-04-18T10:30:38.757Z,41.71
2019-04-18T10:31:38.850Z,41.41
2019-04-18T10:32:38.950Z,40.86
2019-04-18T10:33:39.050Z,39.70
2019-04-18T10:34:39.143Z,39.41
2019-04-18T10:35:39.242Z,39.01
2019-04-18T10:36:39.340Z,40.55
2019-04-18T10:37:39.453Z,41.03
2019-04-18T10:38:39.553Z,40.86
2019-04-18T10:39:39.650Z,39.99
2019-04-18T10:40:39.744Z,39.22
2019-04-18T10:41:39.844Z,38.35
2019-04-18T10:42:39.944Z,38.35
2019-04-18T10:43:40.044Z,37.85
2019-04-18T10:44:40.140Z,38.33
2019-04-18T10:45:40.241Z,38.62
2019-04-18T10:46:44.354Z,39.11
2019-04-18T10:47:40.440Z,39.49
2019-04-18T10:48:40.527Z,40.64
2019-04-18T10:49:40.620Z,40.74
2019-04-18T10:50:40.724Z,41.03
2019-04-18T10:51:40.815Z,40.66
2019-04-18T10:52:40.912Z,39.87
2019-04-18T10:53:41.009Z,40.19
2019-04-18T10:54:42.427Z,40.37
2019-04-18T10:55:41.207Z,39.79
2019-04-18T10:56:41.307Z,39.72
2019-04-18T10:57:41.405Z,38.76
2019-04-18T10:58:41.500Z,37.79
2019-04-18T10:59:41.600Z,37.98
2019-04-18T11:00:44.220Z,38.08
2019-04-18T11:01:41.794Z,37.98
2019-04-18T11:02:41.893Z,37.60
2019-04-18T11:03:41.992Z,37.70
2019-04-18T11:04:42.106Z,37.89
2019-04-18T11:05:42.204Z,37.89
2019-04-18T11:06:42.301Z,38.18
2019-04-18T11:07:42.400Z,38.18
2019-04-18T11:08:42.498Z,37.79
2019-04-18T11:09:42.608Z,37.60
2019-04-18T11:10:42.690Z,37.41
2019-04-18T11:11:42.792Z,38.08
2019-04-18T11:12:42.885Z,37.89
2019-04-18T11:13:42.985Z,38.85
2019-04-18T11:14:43.083Z,38.37
2019-04-18T11:15:43.195Z,38.56
2019-04-18T11:16:43.378Z,37.58
2019-04-18T11:17:43.379Z,37.98
2019-04-18T11:18:43.480Z,37.60
2019-04-18T11:19:43.576Z,37.50
2019-04-18T11:20:43.674Z,37.21
2019-04-18T11:21:43.770Z,37.50
2019-04-18T11:22:43.869Z,38.18
2019-04-18T11:23:43.966Z,37.70
2019-04-18T11:24:44.064Z,37.98
2019-04-18T11:25:44.162Z,38.28
2019-04-18T11:26:44.260Z,37.98
2019-04-18T11:27:44.355Z,37.70
2019-04-18T11:28:44.458Z,37.70
2019-04-18T11:29:44.551Z,37.21
2019-04-18T11:30:58.165Z,36.63
2019-04-18T11:31:44.753Z,36.54
2019-04-18T11:32:44.853Z,37.21
2019-04-18T11:33:44.953Z,37.33
2019-04-18T11:34:45.048Z,36.63
2019-04-18T11:35:45.147Z,36.63
2019-04-18T11:36:45.244Z,36.33
2019-04-18T11:37:48.170Z,37.29
2019-04-18T11:38:47.652Z,37.79
2019-04-18T11:39:45.538Z,37.21
2019-04-18T11:40:45.637Z,37.31
2019-04-18T11:41:45.736Z,37.68
2019-04-18T11:42:45.834Z,37.77
2019-04-18T11:43:47.727Z,38.26
2019-04-18T11:44:46.030Z,38.06
2019-04-18T11:45:46.135Z,38.54
2019-04-18T11:46:46.276Z,37.96
2019-04-18T11:47:46.334Z,37.96
2019-04-18T11:48:46.424Z,37.29
2019-04-18T11:49:46.520Z,37.58
2019-04-18T11:50:46.620Z,38.18
2019-04-18T11:51:46.718Z,37.87
2019-04-18T11:52:46.820Z,38.26
2019-04-18T11:53:46.916Z,38.45
2019-04-18T11:54:47.018Z,38.56
2019-04-18T11:55:47.112Z,39.72
2019-04-18T11:56:47.211Z,38.46
2019-04-18T11:57:48.367Z,38.08
2019-04-18T11:58:47.418Z,38.45
2019-04-18T11:59:47.514Z,39.31
2019-04-18T12:00:47.616Z,38.95
2019-04-18T12:01:47.712Z,38.76
2019-04-18T12:02:47.810Z,38.08
2019-04-18T12:03:47.912Z,38.46
2019-04-18T12:04:48.010Z,37.58
2019-04-18T12:05:51.049Z,37.68
2019-04-18T12:06:48.243Z,38.64
2019-04-18T12:07:48.337Z,38.64
2019-04-18T12:08:48.435Z,38.74
2019-04-18T12:09:48.536Z,38.06
2019-04-18T12:10:48.634Z,38.46
2019-04-18T12:11:48.731Z,37.79
2019-04-18T12:12:51.322Z,36.93
2019-04-18T12:13:48.945Z,36.54
2019-04-18T12:14:49.043Z,36.73
2019-04-18T12:15:49.139Z,36.55
2019-04-18T12:16:49.238Z,36.46
2019-04-18T12:17:49.338Z,36.36
2019-04-18T12:18:49.437Z,37.52
2019-04-18T12:19:49.533Z,36.17
2019-04-18T12:20:49.635Z,36.29
2019-04-18T12:21:49.734Z,36.57
2019-04-18T12:22:49.834Z,35.52
2019-04-18T12:23:49.933Z,35.61
2019-04-18T12:24:50.035Z,35.71
2019-04-18T12:25:50.131Z,35.52
2019-04-18T12:26:52.215Z,34.36
2019-04-18T12:27:50.339Z,33.87
2019-04-18T12:28:50.430Z,33.58
2019-04-18T12:29:50.529Z,33.97
2019-04-18T12:30:50.626Z,33.10
2019-04-18T12:31:50.726Z,32.91
2019-04-18T12:32:50.825Z,33.48
2019-04-18T12:33:50.923Z,33.97
2019-04-18T12:34:51.012Z,33.68
2019-04-18T12:35:51.111Z,32.71
2019-04-18T12:36:51.208Z,32.81
2019-04-18T12:37:51.308Z,33.68
2019-04-18T12:38:51.405Z,33.58
2019-04-18T12:39:51.508Z,33.58
2019-04-18T12:41:05.250Z,34.26
2019-04-18T12:41:51.702Z,34.74
2019-04-18T12:42:51.802Z,35.32
2019-04-18T12:43:51.900Z,35.59
2019-04-18T12:44:52.001Z,35.69
2019-04-18T12:45:52.099Z,35.42
2019-04-18T12:46:52.226Z,35.32
2019-04-18T12:47:52.373Z,34.55
2019-04-18T12:48:52.417Z,34.16
2019-04-18T12:49:52.512Z,34.26
2019-04-18T12:50:52.613Z,33.58
2019-04-18T12:52:08.027Z,33.29
2019-04-18T12:52:52.810Z,33.39
2019-04-18T12:53:52.932Z,33.76